Time;durP1;ratioP1;P1;durP2;ratioP2;P2;SDS_P1;SDS_P2;PMS_P1;PMS_P2;Temp;Humidity;BMP_temperature;BMP_pressure;BME280_temperature;BME280_humidity;BME280_pressure;Samples;Min_cycle;Max_cycle;Signal;HPM_P1;HPM_P2
2023/10/08 00:02:52;;;;;;;15.30;7.47;;;;;;;;;;6267475;28;20479;-65
2023/10/08 00:05:53;;;;;;;18.80;8.07;;;;;;;;;;6265236;28;20073;-68
2023/10/08 00:08:59;;;;;;;16.42;8.32;;;;;;;;;;6265935;28;20121;-66
2023/10/08 00:12:01;;;;;;;12.77;6.35;;;;;;;;;;6265766;28;20168;-69
2023/10/08 00:15:07;;;;;;;7.67;4.33;;;;;;;;;;6265960;28;20045;-68
2023/10/08 00:18:11;;;;;;;5.50;2.70;;;;;;;;;;6263856;28;20411;-67
2023/10/08 00:24:12;;;;;;;5.22;2.60;;;;;;;;;;6266842;28;20053;-68
2023/10/08 00:27:17;;;;;;;7.80;3.35;;;;;;;;;;6263683;28;20045;-69
2023/10/08 00:30:18;;;;;;;6.28;3.08;;;;;;;;;;6262246;28;20040;-68
2023/10/08 00:33:19;;;;;;;6.80;3.60;;;;;;;;;;6267015;28;20442;-69
2023/10/08 00:36:20;;;;;;;8.15;4.22;;;;;;;;;;6263314;28;20102;-68
2023/10/08 00:39:23;;;;;;;9.10;4.53;;;;;;;;;;6265126;28;20052;-65
2023/10/08 00:42:25;;;;;;;8.45;4.18;;;;;;;;;;6265252;28;20090;-67
2023/10/08 00:45:30;;;;;;;6.50;3.00;;;;;;;;;;6264807;28;20045;-68
2023/10/08 00:48:35;;;;;;;5.20;2.00;;;;;;;;;;6262454;28;20053;-68
2023/10/08 00:51:40;;;;;;;4.72;2.13;;;;;;;;;;6261958;28;20056;-68
2023/10/08 00:55:07;;;;;;;5.05;2.05;;;;;;;;;;6265586;28;20049;-67
2023/10/08 00:58:09;;;;;;;3.60;1.40;;;;;;;;;;6258080;28;20185;-67
2023/10/08 01:01:11;;;;;;;3.47;1.30;;;;;;;;;;6264190;28;20126;-65
2023/10/08 01:04:25;;;;;;;1.88;0.98;;;;;;;;;;6264942;28;20049;-66
2023/10/08 01:07:27;;;;;;;1.88;1.00;;;;;;;;;;6265543;28;20063;-68
2023/10/08 01:10:28;;;;;;;2.55;1.08;;;;;;;;;;6263632;28;20140;-63
2023/10/08 01:13:35;;;;;;;3.70;1.48;;;;;;;;;;6263892;28;20037;-65
2023/10/08 01:16:36;;;;;;;4.65;2.03;;;;;;;;;;6265019;28;20080;-67
2023/10/08 01:19:40;;;;;;;7.28;3.40;;;;;;;;;;6264719;28;20044;-68
2023/10/08 01:22:40;;;;;;;7.88;3.22;;;;;;;;;;6263949;28;20040;-68
2023/10/08 01:25:42;;;;;;;5.63;2.22;;;;;;;;;;6262726;28;20719;-66
2023/10/08 01:28:43;;;;;;;5.25;2.30;;;;;;;;;;6264078;28;20149;-66
2023/10/08 01:31:46;;;;;;;6.65;2.45;;;;;;;;;;6263034;28;20502;-65
2023/10/08 01:34:46;;;;;;;4.50;2.30;;;;;;;;;;6264605;28;20049;-64
2023/10/08 01:37:49;;;;;;;4.63;2.47;;;;;;;;;;6265554;28;20037;-67
2023/10/08 01:40:52;;;;;;;;;;;;;;;;;;6264024;28;20515;-68
2023/10/08 01:43:53;;;;;;;6.20;1.98;;;;;;;;;;6263081;28;19921;-66
2023/10/08 01:46:57;;;;;;;4.90;3.03;;;;;;;;;;6255896;28;20057;-68
2023/10/08 01:50:05;;;;;;;4.28;2.28;;;;;;;;;;6262121;28;20049;-69
2023/10/08 01:53:08;;;;;;;5.10;2.60;;;;;;;;;;6263072;28;20332;-68
2023/10/08 01:56:10;;;;;;;4.65;2.20;;;;;;;;;;6262548;28;20303;-65
2023/10/08 01:59:13;;;;;;;4.82;2.13;;;;;;;;;;6265746;28;20106;-68
2023/10/08 02:02:17;;;;;;;6.78;2.47;;;;;;;;;;6266437;28;20063;-68
2023/10/08 02:05:18;;;;;;;5.97;2.78;;;;;;;;;;6267668;28;20400;-63
2023/10/08 02:08:20;;;;;;;5.28;2.58;;;;;;;;;;6270513;28;20572;-68
2023/10/08 02:11:21;;;;;;;5.78;2.60;;;;;;;;;;6266897;28;20114;-63
2023/10/08 02:14:22;;;;;;;5.72;2.10;;;;;;;;;;6268232;28;20037;-67
2023/10/08 02:17:23;;;;;;;4.00;1.65;;;;;;;;;;6270499;28;20045;-68
2023/10/08 02:20:23;;;;;;;3.80;1.60;;;;;;;;;;6268352;28;20065;-69
2023/10/08 02:23:24;;;;;;;5.47;1.77;;;;;;;;;;6266857;28;20075;-61
2023/10/08 02:26:25;;;;;;;3.63;1.80;;;;;;;;;;6270084;28;20116;-67
2023/10/08 02:29:29;;;;;;;4.97;1.67;;;;;;;;;;6268729;28;20052;-67
2023/10/08 02:32:31;;;;;;;3.78;1.60;;;;;;;;;;6267840;28;20494;-69
2023/10/08 02:35:33;;;;;;;4.40;1.90;;;;;;;;;;6267758;28;20391;-66
2023/10/08 02:38:38;;;;;;;2.88;1.30;;;;;;;;;;6266926;28;20041;-63
2023/10/08 02:41:41;;;;;;;3.65;1.33;;;;;;;;;;6268024;28;20045;-68
2023/10/08 02:44:41;;;;;;;3.53;1.23;;;;;;;;;;6262806;28;20044;-67
2023/10/08 02:47:46;;;;;;;2.67;1.05;;;;;;;;;;6266776;28;20072;-68
2023/10/08 02:50:47;;;;;;;2.00;0.93;;;;;;;;;;6257647;28;20052;-65
2023/10/08 02:53:49;;;;;;;2.88;1.00;;;;;;;;;;6266736;28;20492;-68
2023/10/08 02:56:55;;;;;;;2.70;1.10;;;;;;;;;;6267535;28;20059;-67
2023/10/08 02:59:55;;;;;;;2.72;0.95;;;;;;;;;;6267673;28;20045;-68
2023/10/08 03:02:58;;;;;;;3.17;1.17;;;;;;;;;;6265594;28;20542;-65
2023/10/08 03:05:58;;;;;;;5.57;1.90;;;;;;;;;;6264289;28;20041;-65
2023/10/08 03:09:05;;;;;;;3.55;1.65;;;;;;;;;;6267106;28;20407;-68
2023/10/08 03:12:09;;;;;;;4.57;1.80;;;;;;;;;;6265817;28;20052;-68
2023/10/08 03:18:36;;;;;;;2.83;1.25;;;;;;;;;;6262163;28;20436;-68
2023/10/08 03:24:37;;;;;;;3.20;0.90;;;;;;;;;;6263685;28;20094;-66
2023/10/08 03:27:41;;;;;;;3.63;0.82;;;;;;;;;;6265304;28;20426;-66
2023/10/08 03:30:49;;;;;;;2.25;0.73;;;;;;;;;;6264421;28;21898;-68
2023/10/08 03:33:51;;;;;;;3.25;0.88;;;;;;;;;;6265837;28;20367;-67
2023/10/08 03:36:59;;;;;;;3.80;1.00;;;;;;;;;;6265149;28;20053;-68
2023/10/08 03:40:01;;;;;;;2.80;0.95;;;;;;;;;;6265736;28;20087;-69
2023/10/08 03:43:02;;;;;;;3.35;1.17;;;;;;;;;;6266471;28;20123;-67
2023/10/08 03:46:05;;;;;;;4.13;1.10;;;;;;;;;;6264049;28;20535;-69
2023/10/08 03:49:12;;;;;;;3.92;0.98;;;;;;;;;;6265537;28;20045;-67
2023/10/08 03:52:15;;;;;;;4.22;1.23;;;;;;;;;;6264864;28;20051;-65
2023/10/08 03:58:29;;;;;;;2.65;1.10;;;;;;;;;;6263383;28;20060;-68
2023/10/08 04:01:32;;;;;;;5.78;1.42;;;;;;;;;;6266051;28;20102;-68
2023/10/08 04:04:48;;;;;;;2.80;1.20;;;;;;;;;;6263829;28;20137;-69
2023/10/08 04:08:16;;;;;;;3.55;1.27;;;;;;;;;;6265740;28;20148;-69
2023/10/08 04:11:35;;;;;;;3.15;1.27;;;;;;;;;;6251636;28;20049;-68
2023/10/08 04:14:35;;;;;;;7.03;1.30;;;;;;;;;;6266906;28;20091;-63
2023/10/08 04:17:43;;;;;;;3.67;0.95;;;;;;;;;;6266118;28;20049;-68
2023/10/08 04:21:00;;;;;;;2.17;1.00;;;;;;;;;;6261409;28;20158;-66
2023/10/08 04:24:03;;;;;;;3.30;1.05;;;;;;;;;;6262259;28;20136;-69
2023/10/08 04:27:08;;;;;;;4.10;1.00;;;;;;;;;;6265283;28;20044;-68
2023/10/08 04:30:10;;;;;;;5.63;1.40;;;;;;;;;;6266083;28;20049;-67
2023/10/08 04:33:13;;;;;;;5.07;1.23;;;;;;;;;;6265707;28;20056;-68
2023/10/08 04:36:18;;;;;;;6.47;1.77;;;;;;;;;;6264315;28;20388;-61
2023/10/08 04:39:21;;;;;;;7.18;1.55;;;;;;;;;;6262752;28;20037;-69
2023/10/08 04:42:26;;;;;;;6.40;1.73;;;;;;;;;;6259693;28;20529;-69
2023/10/08 04:45:26;;;;;;;5.95;1.67;;;;;;;;;;6263623;28;20453;-68
2023/10/08 04:48:31;;;;;;;9.57;2.75;;;;;;;;;;6265417;28;20179;-68
2023/10/08 04:51:43;;;;;;;6.75;1.60;;;;;;;;;;6264163;28;20063;-66
2023/10/08 04:54:54;;;;;;;5.78;1.60;;;;;;;;;;6263508;28;20480;-69
2023/10/08 04:57:55;;;;;;;5.53;1.40;;;;;;;;;;6265177;28;20049;-67
2023/10/08 05:00:59;;;;;;;6.83;1.47;;;;;;;;;;6264985;28;20397;-68
2023/10/08 05:07:17;;;;;;;5.82;1.98;;;;;;;;;;6262718;28;20049;-64
2023/10/08 05:13:32;;;;;;;4.55;1.30;;;;;;;;;;6266284;28;20484;-69
2023/10/08 05:16:43;;;;;;;6.03;1.83;;;;;;;;;;6263761;28;20049;-68
2023/10/08 05:20:17;;;;;;;4.15;1.67;;;;;;;;;;6260889;28;20044;-68
2023/10/08 05:26:41;;;;;;;6.40;1.60;;;;;;;;;;6263714;28;20052;-67
2023/10/08 05:33:23;;;;;;;5.65;1.90;;;;;;;;;;6245863;28;20057;-69
2023/10/08 05:36:50;;;;;;;6.68;1.60;;;;;;;;;;6264191;28;20052;-66
2023/10/08 05:40:10;;;;;;;5.55;1.75;;;;;;;;;;6262555;28;20055;-68
2023/10/08 05:43:23;;;;;;;6.63;1.70;;;;;;;;;;6258043;28;20049;-67
2023/10/08 05:49:38;;;;;;;7.50;2.08;;;;;;;;;;6264321;28;20436;-67
2023/10/08 05:56:28;;;;;;;6.82;2.75;;;;;;;;;;6241137;28;20044;-64
2023/10/08 05:59:38;;;;;;;4.45;1.92;;;;;;;;;;6261445;28;20597;-69
2023/10/08 06:06:02;;;;;;;7.05;1.92;;;;;;;;;;6261905;28;20088;-60
2023/10/08 06:12:12;;;;;;;7.85;2.72;;;;;;;;;;6256395;28;20045;-68
2023/10/08 06:15:13;;;;;;;7.25;3.30;;;;;;;;;;6264495;28;20033;-68
2023/10/08 06:18:18;;;;;;;8.40;3.17;;;;;;;;;;6263227;28;20075;-65
2023/10/08 06:21:20;;;;;;;11.25;4.32;;;;;;;;;;6265164;28;20400;-64
2023/10/08 06:24:21;;;;;;;9.43;4.70;;;;;;;;;;6265025;28;20132;-64
2023/10/08 06:27:25;;;;;;;11.25;4.55;;;;;;;;;;6265343;28;20056;-59
2023/10/08 06:30:34;;;;;;;10.05;3.63;;;;;;;;;;6265068;28;20146;-67
2023/10/08 06:33:35;;;;;;;10.20;3.78;;;;;;;;;;6264400;28;20051;-65
2023/10/08 06:36:35;;;;;;;10.70;3.40;;;;;;;;;;6263791;28;20041;-67
2023/10/08 06:39:48;;;;;;;10.40;3.00;;;;;;;;;;6255336;28;20051;-66
2023/10/08 06:42:51;;;;;;;11.27;3.22;;;;;;;;;;6263157;28;20055;-68
2023/10/08 06:45:52;;;;;;;7.68;2.90;;;;;;;;;;6264093;28;20048;-68
2023/10/08 06:48:53;;;;;;;8.60;3.00;;;;;;;;;;6269944;28;20049;-65
2023/10/08 06:51:54;;;;;;;10.43;4.05;;;;;;;;;;6267650;28;20060;-68
2023/10/08 06:54:55;;;;;;;8.33;3.03;;;;;;;;;;6267929;28;20049;-67
2023/10/08 06:57:56;;;;;;;9.63;3.15;;;;;;;;;;6268333;28;20305;-68
2023/10/08 07:00:58;;;;;;;6.43;2.60;;;;;;;;;;6264451;28;20056;-68
2023/10/08 07:04:06;;;;;;;;;;;;;;;;;;6263861;28;20048;-69
2023/10/08 07:07:09;;;;;;;10.55;2.65;;;;;;;;;;6265291;28;20027;-68
2023/10/08 07:10:10;;;;;;;8.20;2.60;;;;;;;;;;6264210;28;20519;-68
2023/10/08 07:13:11;;;;;;;7.03;2.60;;;;;;;;;;6262833;28;20154;-65
2023/10/08 07:16:11;;;;;;;8.25;2.75;;;;;;;;;;6267073;28;20037;-68
2023/10/08 07:19:18;;;;;;;8.32;2.67;;;;;;;;;;6267991;28;20091;-68
2023/10/08 07:22:22;;;;;;;6.90;2.60;;;;;;;;;;6268157;28;20057;-68
2023/10/08 07:25:23;;;;;;;6.50;2.38;;;;;;;;;;6267226;28;20045;-68
2023/10/08 07:28:25;;;;;;;7.47;2.58;;;;;;;;;;6263455;28;20447;-67
2023/10/08 07:31:28;;;;;;;6.55;2.58;;;;;;;;;;6266112;28;20051;-69
2023/10/08 07:34:31;;;;;;;7.15;2.75;;;;;;;;;;6265392;28;20067;-67
2023/10/08 07:37:32;;;;;;;6.80;2.30;;;;;;;;;;6266418;28;20488;-68
2023/10/08 07:40:37;;;;;;;9.07;2.50;;;;;;;;;;6266835;28;20455;-68
2023/10/08 07:43:38;;;;;;;8.32;2.78;;;;;;;;;;6266419;28;20044;-69
2023/10/08 07:46:38;;;;;;;8.52;3.03;;;;;;;;;;6265243;28;20381;-67
2023/10/08 07:49:40;;;;;;;11.68;3.90;;;;;;;;;;6266493;28;20068;-68
2023/10/08 07:52:44;;;;;;;12.00;5.20;;;;;;;;;;6266003;28;20408;-68
2023/10/08 07:55:46;;;;;;;13.48;5.63;;;;;;;;;;6265779;28;20045;-68
2023/10/08 07:58:47;;;;;;;10.20;5.47;;;;;;;;;;6265599;28;20499;-68
2023/10/08 08:01:48;;;;;;;12.43;5.15;;;;;;;;;;6266221;28;20049;-66
2023/10/08 08:04:53;;;;;;;13.45;5.85;;;;;;;;;;6265551;28;20491;-67
2023/10/08 08:07:56;;;;;;;16.83;7.15;;;;;;;;;;6264646;28;20048;-65
2023/10/08 08:11:03;;;;;;;15.15;6.40;;;;;;;;;;6265341;28;20049;-64
2023/10/08 08:14:07;;;;;;;17.30;7.00;;;;;;;;;;6264530;28;20059;-66
2023/10/08 08:17:14;;;;;;;15.20;6.20;;;;;;;;;;6264720;28;20045;-63
2023/10/08 08:20:43;;;;;;;13.38;5.97;;;;;;;;;;6265344;28;20041;-63
2023/10/08 08:23:48;;;;;;;11.43;3.90;;;;;;;;;;6264566;28;20131;-67
2023/10/08 08:27:07;;;;;;;12.18;4.57;;;;;;;;;;6262693;28;20356;-68
2023/10/08 08:30:15;;;;;;;8.20;3.97;;;;;;;;;;6261195;28;20511;-64
2023/10/08 08:33:22;;;;;;;11.00;4.55;;;;;;;;;;6263934;28;20504;-65
2023/10/08 08:36:23;;;;;;;9.85;4.43;;;;;;;;;;6264705;28;20135;-65
2023/10/08 08:39:35;;;;;;;9.57;4.22;;;;;;;;;;6266345;28;20147;-65
2023/10/08 08:42:36;;;;;;;10.45;4.00;;;;;;;;;;6263631;28;20102;-66
2023/10/08 08:45:40;;;;;;;8.95;3.90;;;;;;;;;;6263783;28;20049;-63
2023/10/08 08:48:44;;;;;;;11.70;4.50;;;;;;;;;;6265033;28;20072;-67
2023/10/08 08:51:48;;;;;;;11.43;4.65;;;;;;;;;;6259117;28;20053;-66
2023/10/08 08:54:48;;;;;;;10.38;4.68;;;;;;;;;;6261387;28;20385;-68
2023/10/08 08:57:53;;;;;;;11.60;4.63;;;;;;;;;;6262453;28;20143;-67
2023/10/08 09:00:55;;;;;;;14.50;4.22;;;;;;;;;;6257762;28;20064;-66
2023/10/08 09:04:05;;;;;;;12.82;4.78;;;;;;;;;;6263926;28;20047;-66
2023/10/08 09:07:05;;;;;;;11.93;5.00;;;;;;;;;;6263845;28;20052;-68
2023/10/08 09:10:12;;;;;;;11.27;4.75;;;;;;;;;;6262855;28;20408;-60
2023/10/08 09:13:12;;;;;;;13.55;5.18;;;;;;;;;;6263992;28;20059;-62
2023/10/08 09:16:15;;;;;;;14.73;7.72;;;;;;;;;;6265789;28;20468;-59
2023/10/08 09:19:19;;;;;;;9.68;4.70;;;;;;;;;;6265230;28;20055;-61
2023/10/08 09:22:21;;;;;;;11.85;4.97;;;;;;;;;;6261220;28;20057;-64
2023/10/08 09:25:22;;;;;;;11.85;4.60;;;;;;;;;;6265152;28;20051;-64
2023/10/08 09:28:25;;;;;;;10.50;3.83;;;;;;;;;;6265164;28;20498;-65
2023/10/08 09:31:25;;;;;;;9.23;3.20;;;;;;;;;;6264577;28;20441;-68
2023/10/08 09:34:28;;;;;;;7.57;3.33;;;;;;;;;;6264552;28;20041;-68
2023/10/08 09:37:29;;;;;;;7.78;2.65;;;;;;;;;;6265197;28;20484;-71
2023/10/08 09:40:30;;;;;;;6.80;2.55;;;;;;;;;;6265427;28;20048;-65
2023/10/08 09:43:34;;;;;;;7.25;3.35;;;;;;;;;;6265055;28;20044;-62
2023/10/08 09:46:38;;;;;;;10.60;2.72;;;;;;;;;;6268771;28;20518;-67
2023/10/08 09:49:42;;;;;;;6.82;2.83;;;;;;;;;;6265574;28;20060;-63
2023/10/08 09:52:52;;;;;;;5.68;2.90;;;;;;;;;;6258485;28;20080;-63
2023/10/08 09:55:57;;;;;;;10.27;3.58;;;;;;;;;;6256281;28;20065;-60
2023/10/08 09:58:59;;;;;;;8.02;3.13;;;;;;;;;;6253277;28;20073;-66
2023/10/08 10:02:00;;;;;;;5.10;2.72;;;;;;;;;;6254075;28;20103;-68
2023/10/08 10:05:01;;;;;;;4.78;2.58;;;;;;;;;;6247419;28;20048;-69
2023/10/08 10:08:05;;;;;;;10.27;3.15;;;;;;;;;;6255203;28;20042;-60
2023/10/08 10:11:06;;;;;;;7.30;2.85;;;;;;;;;;6254371;28;20186;-61
2023/10/08 10:14:08;;;;;;;5.70;2.15;;;;;;;;;;6257400;28;20073;-63
2023/10/08 10:17:14;;;;;;;7.03;3.25;;;;;;;;;;6258904;28;20164;-64
2023/10/08 10:20:16;;;;;;;8.60;2.45;;;;;;;;;;6266949;28;20052;-62
2023/10/08 10:23:37;;;;;;;7.18;2.30;;;;;;;;;;6267563;28;20552;-65
2023/10/08 10:26:40;;;;;;;6.38;2.35;;;;;;;;;;6261458;28;20048;-61
2023/10/08 10:29:47;;;;;;;4.35;2.28;;;;;;;;;;6270271;28;20051;-61
2023/10/08 10:32:48;;;;;;;4.60;2.13;;;;;;;;;;6262002;28;20063;-65
2023/10/08 10:35:52;;;;;;;6.43;2.30;;;;;;;;;;6269733;28;20037;-66
2023/10/08 10:38:53;;;;;;;6.30;2.42;;;;;;;;;;6267098;28;20400;-64
2023/10/08 10:42:03;;;;;;;8.43;2.50;;;;;;;;;;6265340;28;20423;-66
2023/10/08 10:45:09;;;;;;;7.40;2.17;;;;;;;;;;6268987;28;20053;-67
2023/10/08 10:48:21;;;;;;;5.10;2.40;;;;;;;;;;6268962;28;20503;-64
2023/10/08 10:51:22;;;;;;;4.83;2.10;;;;;;;;;;6271413;28;20037;-58
2023/10/08 10:54:23;;;;;;;5.33;2.13;;;;;;;;;;6261646;28;20475;-66
2023/10/08 10:57:34;;;;;;;9.85;2.42;;;;;;;;;;6265304;28;20071;-65
2023/10/08 11:03:35;;;;;;;6.70;1.90;;;;;;;;;;6261399;28;20393;-66
2023/10/08 11:06:37;;;;;;;5.22;2.00;;;;;;;;;;6266252;28;20141;-65
2023/10/08 11:09:38;;;;;;;5.07;1.70;;;;;;;;;;6262492;28;20048;-63
2023/10/08 11:12:47;;;;;;;3.75;1.50;;;;;;;;;;6264888;28;20053;-64
2023/10/08 11:15:51;;;;;;;6.53;1.90;;;;;;;;;;6265250;28;20071;-64
2023/10/08 11:18:57;;;;;;;4.93;1.95;;;;;;;;;;6264718;28;20471;-64
2023/10/08 11:21:59;;;;;;;4.20;1.88;;;;;;;;;;6251749;28;20512;-64
2023/10/08 11:25:00;;;;;;;;;;;;;;;;;;6266240;28;20056;-63
2023/10/08 11:28:09;;;;;;;4.60;1.65;;;;;;;;;;6266838;28;20011;-62
2023/10/08 11:31:15;;;;;;;3.88;1.50;;;;;;;;;;6252906;28;20238;-63
2023/10/08 11:34:19;;;;;;;5.22;1.70;;;;;;;;;;6268151;28;20049;-62
2023/10/08 11:37:33;;;;;;;5.30;1.67;;;;;;;;;;6264829;28;20053;-63
2023/10/08 11:40:49;;;;;;;4.47;1.60;;;;;;;;;;6266121;28;20484;-63
2023/10/08 11:43:56;;;;;;;5.28;1.67;;;;;;;;;;6267013;28;20526;-63
2023/10/08 11:47:04;;;;;;;4.75;2.00;;;;;;;;;;6266752;28;20045;-64
2023/10/08 11:50:10;;;;;;;4.45;1.48;;;;;;;;;;6266754;28;20051;-64
2023/10/08 11:53:11;;;;;;;3.88;1.52;;;;;;;;;;6263055;28;20569;-63
2023/10/08 11:56:15;;;;;;;6.10;1.70;;;;;;;;;;6266135;28;20507;-63
2023/10/08 11:59:18;;;;;;;6.88;1.70;;;;;;;;;;6266845;28;20037;-64
2023/10/08 12:02:20;;;;;;;4.63;1.63;;;;;;;;;;6265736;28;20051;-63
2023/10/08 12:05:23;;;;;;;;;;;;;;;;;;6266912;28;20037;-64
2023/10/08 12:08:23;;;;;;;4.18;1.48;;;;;;;;;;6266019;28;20314;-64
2023/10/08 12:11:33;;;;;;;5.50;1.45;;;;;;;;;;6266826;28;20056;-64
2023/10/08 12:14:33;;;;;;;5.90;1.48;;;;;;;;;;6263870;28;20051;-64
2023/10/08 12:17:40;;;;;;;3.92;1.42;;;;;;;;;;6266080;28;20053;-63
2023/10/08 12:20:45;;;;;;;6.13;1.50;;;;;;;;;;6266431;28;20052;-64
2023/10/08 12:23:46;;;;;;;5.85;1.83;;;;;;;;;;6265356;28;20072;-64
2023/10/08 12:26:49;;;;;;;5.20;1.30;;;;;;;;;;6265217;28;20492;-63
2023/10/08 12:29:49;;;;;;;3.10;1.40;;;;;;;;;;6264823;28;20238;-64
2023/10/08 12:32:50;;;;;;;6.47;1.58;;;;;;;;;;6265221;28;20819;-63
2023/10/08 12:35:55;;;;;;;5.53;1.40;;;;;;;;;;6265232;28;20056;-64
2023/10/08 12:38:59;;;;;;;3.28;1.38;;;;;;;;;;6265010;28;20060;-63
2023/10/08 12:42:04;;;;;;;5.55;2.22;;;;;;;;;;6265334;28;20517;-65
2023/10/08 12:45:12;;;;;;;7.13;1.80;;;;;;;;;;6264355;28;20041;-65
2023/10/08 12:48:13;;;;;;;6.82;1.75;;;;;;;;;;6265146;28;20045;-65
2023/10/08 12:51:14;;;;;;;;;;;;;;;;;;6266413;28;20043;-65
2023/10/08 12:54:21;;;;;;;8.27;2.70;;;;;;;;;;6264542;28;19921;-64
2023/10/08 12:57:31;;;;;;;7.85;1.70;;;;;;;;;;6264341;28;20478;-63
2023/10/08 13:00:32;;;;;;;6.07;1.90;;;;;;;;;;6264558;28;20040;-66
2023/10/08 13:03:33;;;;;;;10.60;2.40;;;;;;;;;;6265491;28;20049;-65
2023/10/08 13:06:37;;;;;;;8.60;1.85;;;;;;;;;;6265542;28;20523;-64
2023/10/08 13:09:38;;;;;;;5.65;1.50;;;;;;;;;;6250254;28;20063;-64
2023/10/08 13:12:38;;;;;;;4.80;1.60;;;;;;;;;;6246564;28;20083;-62
2023/10/08 13:15:41;;;;;;;4.20;1.20;;;;;;;;;;6252555;28;20091;-64
2023/10/08 13:18:43;;;;;;;9.15;2.28;;;;;;;;;;6254252;28;20143;-64
2023/10/08 13:21:44;;;;;;;31.95;6.00;;;;;;;;;;6248584;28;20690;-64
2023/10/08 13:24:44;;;;;;;16.60;4.05;;;;;;;;;;6253818;28;20053;-67
2023/10/08 13:27:48;;;;;;;6.10;1.50;;;;;;;;;;6252454;28;20045;-65
2023/10/08 13:30:55;;;;;;;4.97;1.42;;;;;;;;;;6253569;28;20403;-64
2023/10/08 13:34:02;;;;;;;6.35;1.60;;;;;;;;;;6255109;28;20632;-66
2023/10/08 13:37:03;;;;;;;16.25;3.55;;;;;;;;;;6254948;28;20398;-64
2023/10/08 13:40:04;;;;;;;6.85;1.73;;;;;;;;;;6261852;28;20476;-64
2023/10/08 13:43:05;;;;;;;33.45;4.72;;;;;;;;;;6253375;28;20057;-62
2023/10/08 13:46:12;;;;;;;34.60;5.80;;;;;;;;;;6255042;28;20056;-60
2023/10/08 13:49:14;;;;;;;6.90;1.63;;;;;;;;;;6255177;28;20048;-63
2023/10/08 13:52:14;;;;;;;22.58;4.38;;;;;;;;;;6255143;28;20057;-64
2023/10/08 13:55:17;;;;;;;8.80;2.20;;;;;;;;;;6255967;28;20051;-64
2023/10/08 13:58:18;;;;;;;9.73;2.17;;;;;;;;;;6259523;28;20051;-61
2023/10/08 14:01:21;;;;;;;33.05;5.95;;;;;;;;;;6255934;28;20420;-61
2023/10/08 14:04:29;;;;;;;14.68;3.00;;;;;;;;;;6257964;28;20066;-61
2023/10/08 14:07:30;;;;;;;6.28;2.13;;;;;;;;;;6257972;28;20056;-62
2023/10/08 14:10:31;;;;;;;6.05;1.92;;;;;;;;;;6258907;28;20049;-61
2023/10/08 14:13:32;;;;;;;5.88;1.70;;;;;;;;;;6260888;28;20094;-61
2023/10/08 14:16:42;;;;;;;5.10;1.97;;;;;;;;;;6258602;28;20064;-62
2023/10/08 14:19:46;;;;;;;7.78;1.70;;;;;;;;;;6259011;28;20411;-62
2023/10/08 14:22:57;;;;;;;6.03;1.45;;;;;;;;;;6257353;28;20057;-62
2023/10/08 14:26:03;;;;;;;6.95;2.55;;;;;;;;;;6260067;28;20111;-62
2023/10/08 14:29:17;;;;;;;9.38;2.53;;;;;;;;;;6259109;28;20051;-62
2023/10/08 14:32:17;;;;;;;8.02;2.10;;;;;;;;;;6251462;28;20053;-60
2023/10/08 14:45:18;;;;;;;9.38;2.83;;;;;;;;;;6257178;28;20203;-63
2023/10/08 14:48:20;;;;;;;11.10;2.90;;;;;;;;;;6258196;28;20488;-60
2023/10/08 14:51:20;;;;;;;4.30;1.67;;;;;;;;;;6257635;28;20673;-60
2023/10/08 14:54:21;;;;;;;5.88;1.63;;;;;;;;;;6257376;28;20049;-63
2023/10/08 14:57:21;;;;;;;7.72;1.73;;;;;;;;;;6258581;28;20049;-63
2023/10/08 15:00:26;;;;;;;5.13;1.70;;;;;;;;;;6257335;28;20056;-63
2023/10/08 15:03:26;;;;;;;8.05;2.03;;;;;;;;;;6257124;28;20130;-62
2023/10/08 15:06:28;;;;;;;5.78;1.90;;;;;;;;;;6258254;28;20053;-62
2023/10/08 15:09:28;;;;;;;5.55;1.63;;;;;;;;;;6258627;28;20496;-66
2023/10/08 15:12:34;;;;;;;8.73;2.00;;;;;;;;;;6258764;28;20037;-61
2023/10/08 15:15:35;;;;;;;6.35;1.80;;;;;;;;;;6258140;28;20055;-64
2023/10/08 15:18:41;;;;;;;6.38;2.05;;;;;;;;;;6256689;28;20049;-65
2023/10/08 15:21:43;;;;;;;5.45;1.55;;;;;;;;;;6256561;28;20049;-64
2023/10/08 15:24:45;;;;;;;6.15;1.40;;;;;;;;;;6256585;28;20048;-59
2023/10/08 15:27:47;;;;;;;6.27;1.40;;;;;;;;;;6259059;28;20049;-56
2023/10/08 15:30:48;;;;;;;6.93;1.50;;;;;;;;;;6256680;28;20159;-60
2023/10/08 15:33:48;;;;;;;6.47;1.45;;;;;;;;;;6258268;28;20041;-55
2023/10/08 15:36:49;;;;;;;7.30;1.80;;;;;;;;;;6257584;28;20076;-62
2023/10/08 15:39:50;;;;;;;5.05;1.67;;;;;;;;;;6259999;28;20048;-63
2023/10/08 15:42:56;;;;;;;5.30;1.58;;;;;;;;;;6256470;28;20084;-60
2023/10/08 15:45:56;;;;;;;6.60;1.65;;;;;;;;;;6256827;28;20143;-62
2023/10/08 15:48:57;;;;;;;4.30;1.50;;;;;;;;;;6258255;28;20128;-64
2023/10/08 15:51:58;;;;;;;4.85;1.55;;;;;;;;;;6254677;28;20060;-64
2023/10/08 15:54:58;;;;;;;9.07;1.90;;;;;;;;;;6257514;28;20107;-64
2023/10/08 15:57:59;;;;;;;4.22;1.50;;;;;;;;;;6259160;28;20613;-64
2023/10/08 16:01:00;;;;;;;4.90;1.73;;;;;;;;;;6257026;28;20529;-62
2023/10/08 16:04:00;;;;;;;8.95;1.55;;;;;;;;;;6256921;28;20102;-63
2023/10/08 16:07:01;;;;;;;6.47;2.42;;;;;;;;;;6256733;28;20504;-62
2023/10/08 16:10:03;;;;;;;7.45;2.38;;;;;;;;;;6258436;28;20391;-63
2023/10/08 16:13:05;;;;;;;;;;;;;;;;;;6251348;28;20061;-65
2023/10/08 16:16:08;;;;;;;8.15;2.33;;;;;;;;;;6253850;28;19924;-63
2023/10/08 16:19:10;;;;;;;10.63;2.75;;;;;;;;;;6255380;28;20745;-57
2023/10/08 16:22:10;;;;;;;9.20;3.30;;;;;;;;;;6252775;28;20049;-62
2023/10/08 16:25:15;;;;;;;10.32;4.18;;;;;;;;;;6253979;28;20395;-62
2023/10/08 16:28:18;;;;;;;10.88;3.30;;;;;;;;;;6256088;28;20057;-63
2023/10/08 16:31:18;;;;;;;7.72;2.72;;;;;;;;;;6253969;28;20049;-60
2023/10/08 16:34:19;;;;;;;7.80;2.63;;;;;;;;;;6253968;28;20072;-64
2023/10/08 16:37:21;;;;;;;8.50;2.40;;;;;;;;;;6253044;28;20059;-60
2023/10/08 16:40:22;;;;;;;9.95;3.17;;;;;;;;;;6253919;28;20072;-58
2023/10/08 16:43:23;;;;;;;9.57;2.90;;;;;;;;;;6254248;28;20053;-60
2023/10/08 16:46:23;;;;;;;13.85;3.63;;;;;;;;;;6253103;28;20395;-57
2023/10/08 16:49:26;;;;;;;12.30;4.45;;;;;;;;;;6255176;28;20057;-53
2023/10/08 16:52:27;;;;;;;12.57;3.72;;;;;;;;;;6253119;28;20056;-56
2023/10/08 16:55:28;;;;;;;9.53;3.50;;;;;;;;;;6253294;28;20045;-57
2023/10/08 16:58:29;;;;;;;11.27;3.28;;;;;;;;;;6255222;28;20804;-55
2023/10/08 17:01:29;;;;;;;12.15;3.38;;;;;;;;;;6252251;28;20530;-59
2023/10/08 17:04:30;;;;;;;9.07;2.38;;;;;;;;;;6253776;28;20514;-55
2023/10/08 17:07:30;;;;;;;8.75;2.80;;;;;;;;;;6252712;28;20537;-57
2023/10/08 17:10:31;;;;;;;10.52;3.80;;;;;;;;;;6252322;28;20259;-55
2023/10/08 17:13:32;;;;;;;12.75;3.95;;;;;;;;;;6251941;28;20056;-57
2023/10/08 17:16:32;;;;;;;13.50;5.35;;;;;;;;;;6252950;28;20525;-61
2023/10/08 17:19:34;;;;;;;18.80;6.50;;;;;;;;;;6253463;28;20447;-60
2023/10/08 17:22:38;;;;;;;13.97;4.97;;;;;;;;;;6252601;28;20055;-55
2023/10/08 17:25:39;;;;;;;13.45;5.22;;;;;;;;;;6253607;28;20041;-56
2023/10/08 17:28:41;;;;;;;17.33;6.15;;;;;;;;;;6252257;28;20515;-56
2023/10/08 17:31:42;;;;;;;14.52;5.75;;;;;;;;;;6252045;28;20049;-59
2023/10/08 17:34:43;;;;;;;14.05;6.35;;;;;;;;;;6252812;28;20049;-60
2023/10/08 17:37:46;;;;;;;16.23;6.30;;;;;;;;;;6252705;28;20591;-57
2023/10/08 17:40:46;;;;;;;14.10;5.47;;;;;;;;;;6267563;28;20049;-60
2023/10/08 17:43:47;;;;;;;14.55;5.40;;;;;;;;;;6254530;28;20053;-60
2023/10/08 17:46:49;;;;;;;17.75;6.43;;;;;;;;;;6252812;28;20432;-58
2023/10/08 17:49:49;;;;;;;12.80;4.88;;;;;;;;;;6252958;28;20053;-59
2023/10/08 17:52:50;;;;;;;15.30;5.78;;;;;;;;;;6251960;28;20052;-57
2023/10/08 17:55:51;;;;;;;12.25;5.13;;;;;;;;;;6251903;28;20080;-57
2023/10/08 17:58:51;;;;;;;13.18;5.05;;;;;;;;;;6253948;28;20475;-55
2023/10/08 18:01:52;;;;;;;12.30;5.43;;;;;;;;;;6251288;28;20106;-58
2023/10/08 18:04:53;;;;;;;12.35;5.65;;;;;;;;;;6252009;28;20053;-60
2023/10/08 18:07:54;;;;;;;12.93;4.10;;;;;;;;;;6253229;28;20427;-57
2023/10/08 18:10:59;;;;;;;13.00;4.78;;;;;;;;;;6248240;28;20097;-56
2023/10/08 18:14:01;;;;;;;20.92;9.07;;;;;;;;;;6249756;28;20561;-60
2023/10/08 18:17:01;;;;;;;19.48;9.40;;;;;;;;;;6265167;28;20040;-55
2023/10/08 18:20:03;;;;;;;22.63;10.30;;;;;;;;;;6253423;28;20049;-59
2023/10/08 18:23:04;;;;;;;29.70;14.80;;;;;;;;;;6250893;28;20495;-59
2023/10/08 18:26:07;;;;;;;43.17;21.88;;;;;;;;;;6248953;28;20047;-57
2023/10/08 18:29:13;;;;;;;34.78;15.77;;;;;;;;;;6252135;28;20053;-49
2023/10/08 18:32:13;;;;;;;43.88;20.85;;;;;;;;;;6250670;28;20515;-57
2023/10/08 18:35:14;;;;;;;33.92;18.17;;;;;;;;;;6253126;28;20053;-61
2023/10/08 18:38:15;;;;;;;41.85;20.25;;;;;;;;;;6252702;28;20049;-60
2023/10/08 18:41:16;;;;;;;38.47;18.02;;;;;;;;;;6253466;28;20040;-61
2023/10/08 18:44:18;;;;;;;38.22;18.23;;;;;;;;;;6256499;28;20081;-59
2023/10/08 18:47:19;;;;;;;36.25;19.35;;;;;;;;;;6257132;28;20518;-59
2023/10/08 18:50:22;;;;;;;34.75;17.83;;;;;;;;;;6256434;28;20139;-59
2023/10/08 18:53:23;;;;;;;32.13;16.20;;;;;;;;;;6257868;28;20053;-58
2023/10/08 18:56:24;;;;;;;35.40;18.53;;;;;;;;;;6255813;28;20498;-61
2023/10/08 18:59:24;;;;;;;29.15;15.70;;;;;;;;;;6257249;28;20048;-58
2023/10/08 19:02:26;;;;;;;30.83;15.98;;;;;;;;;;6252952;28;20080;-60
2023/10/08 19:05:26;;;;;;;31.80;16.27;;;;;;;;;;6256192;28;20457;-60
2023/10/08 19:08:27;;;;;;;29.25;12.55;;;;;;;;;;6256604;28;20045;-55
2023/10/08 19:11:28;;;;;;;24.95;11.60;;;;;;;;;;6255111;28;20060;-60